createdAt,value
2024-01-14T00:00:35.960Z,33.50
2024-01-14T00:03:26.963Z,34.50
2024-01-14T00:05:55.527Z,33.70
2024-01-14T00:08:24.121Z,31.20
2024-01-14T00:10:53.151Z,33.10
2024-01-14T00:13:21.252Z,34.40
2024-01-14T00:15:49.381Z,32.30
2024-01-14T00:18:17.861Z,30.50
2024-01-14T00:20:46.286Z,32.50
2024-01-14T00:23:16.230Z,29.00
2024-01-14T00:25:44.346Z,29.20
2024-01-14T00:28:13.525Z,30.60
2024-01-14T00:30:41.983Z,33.50
2024-01-14T00:33:11.107Z,33.00
2024-01-14T00:35:42.408Z,36.20
2024-01-14T00:38:14.999Z,33.90
2024-01-14T00:40:43.774Z,33.70
2024-01-14T00:43:12.241Z,34.90
2024-01-14T00:45:41.535Z,34.40
2024-01-14T00:48:09.918Z,33.30
2024-01-14T00:50:40.796Z,32.30
2024-01-14T00:53:09.291Z,32.70
2024-01-14T00:55:40.569Z,31.20
2024-01-14T00:58:11.121Z,32.20
2024-01-14T01:00:40.672Z,33.00
2024-01-14T01:03:09.602Z,30.70
2024-01-14T01:05:37.946Z,31.40
2024-01-14T01:08:07.333Z,32.80
2024-01-14T01:10:36.568Z,33.70
2024-01-14T01:13:08.037Z,30.10
2024-01-14T01:15:36.623Z,32.00
2024-01-14T01:18:05.518Z,32.20
2024-01-14T01:20:34.372Z,32.40
2024-01-14T01:23:02.470Z,32.80
2024-01-14T01:25:34.717Z,31.70
2024-01-14T01:28:03.855Z,33.40
2024-01-14T01:30:32.386Z,30.10
2024-01-14T01:33:01.128Z,32.60
2024-01-14T01:35:29.470Z,32.90
2024-01-14T01:37:57.826Z,28.60
2024-01-14T01:40:26.800Z,31.10
2024-01-14T01:42:57.158Z,31.10
2024-01-14T01:45:25.642Z,33.00
2024-01-14T01:47:56.043Z,33.90
2024-01-14T01:50:25.239Z,32.60
2024-01-14T01:52:54.200Z,32.40
2024-01-14T01:55:22.612Z,31.60
2024-01-14T01:57:51.282Z,30.90
2024-01-14T02:00:21.251Z,30.00
2024-01-14T02:02:50.615Z,30.00
2024-01-14T02:05:20.589Z,31.90
2024-01-14T02:07:49.304Z,30.80
2024-01-14T02:10:17.834Z,31.80
2024-01-14T02:12:48.814Z,30.50
2024-01-14T02:15:17.232Z,32.80
2024-01-14T02:17:45.503Z,31.80
2024-01-14T02:20:15.700Z,32.60
2024-01-14T02:22:48.366Z,31.20
2024-01-14T02:25:18.999Z,32.00
2024-01-14T02:27:56.985Z,31.40
2024-01-14T02:30:25.381Z,31.30
2024-01-14T02:32:56.873Z,30.60
2024-01-14T02:35:26.316Z,30.30
2024-01-14T02:37:57.213Z,31.00
2024-01-14T02:40:26.388Z,33.50
2024-01-14T02:42:54.706Z,29.90
2024-01-14T02:45:22.930Z,31.20
2024-01-14T02:47:51.061Z,30.90
2024-01-14T02:50:19.200Z,30.20
2024-01-14T02:52:47.485Z,30.30
2024-01-14T02:55:15.995Z,29.00
2024-01-14T02:57:44.445Z,28.90
2024-01-14T03:00:14.410Z,29.60
2024-01-14T03:02:43.147Z,31.80
2024-01-14T03:05:13.010Z,30.30
2024-01-14T03:07:41.188Z,31.10
2024-01-14T03:10:10.992Z,27.40
2024-01-14T03:12:39.310Z,29.90
2024-01-14T03:15:10.401Z,29.80
2024-01-14T03:17:40.297Z,29.70
2024-01-14T03:20:09.783Z,29.70
2024-01-14T03:22:38.447Z,28.90
2024-01-14T03:25:09.098Z,30.60
2024-01-14T03:27:37.264Z,28.10
2024-01-14T03:30:09.858Z,28.40
2024-01-14T03:32:38.079Z,29.00
2024-01-14T03:35:06.343Z,28.80
2024-01-14T03:37:34.507Z,27.10
2024-01-14T03:40:04.712Z,28.80
2024-01-14T03:42:34.060Z,29.30
2024-01-14T03:45:05.905Z,29.60
2024-01-14T03:47:34.080Z,29.80
2024-01-14T03:50:02.263Z,29.70
2024-01-14T03:52:31.688Z,29.20
2024-01-14T03:55:00.743Z,26.30
2024-01-14T03:57:31.066Z,29.40
2024-01-14T03:59:59.905Z,29.80
2024-01-14T04:02:29.913Z,30.60
2024-01-14T04:04:58.137Z,26.80
2024-01-14T04:07:26.340Z,28.00
2024-01-14T04:09:54.365Z,28.60
2024-01-14T04:12:23.814Z,28.60
2024-01-14T04:14:52.535Z,28.20
2024-01-14T04:17:20.804Z,27.60
2024-01-14T04:19:49.437Z,27.50
2024-01-14T04:22:19.977Z,27.60
2024-01-14T04:24:48.296Z,28.10
2024-01-14T04:27:16.639Z,27.60
2024-01-14T04:29:44.868Z,27.20
2024-01-14T04:32:13.576Z,25.30
2024-01-14T04:34:42.744Z,27.70
2024-01-14T04:37:12.166Z,24.80
2024-01-14T04:39:41.819Z,23.10
2024-01-14T04:42:10.098Z,24.40
2024-01-14T04:44:38.833Z,25.70
2024-01-14T04:47:06.917Z,26.00
2024-01-14T04:49:35.677Z,24.50
2024-01-14T04:52:04.522Z,26.50
2024-01-14T04:54:32.631Z,25.30
2024-01-14T04:57:01.357Z,25.20
2024-01-14T04:59:29.481Z,26.10
2024-01-14T05:01:58.383Z,25.10
2024-01-14T05:04:28.712Z,27.00
2024-01-14T05:06:56.859Z,24.80
2024-01-14T05:09:26.679Z,25.60
2024-01-14T05:11:54.956Z,25.60
2024-01-14T05:14:23.096Z,24.20
2024-01-14T05:16:52.012Z,20.10
2024-01-14T05:19:21.928Z,25.30
2024-01-14T05:21:53.759Z,25.50
2024-01-14T05:24:21.977Z,25.50
2024-01-14T05:26:50.028Z,25.60
2024-01-14T05:29:18.406Z,24.80
2024-01-14T05:31:47.902Z,24.60
2024-01-14T05:34:16.693Z,23.70
2024-01-14T05:36:48.018Z,24.20
2024-01-14T05:39:16.423Z,24.40
2024-01-14T05:41:45.331Z,22.10
2024-01-14T05:44:14.053Z,24.10
2024-01-14T05:46:42.474Z,23.20
2024-01-14T05:49:12.038Z,24.40
2024-01-14T05:51:40.820Z,21.30
2024-01-14T05:54:09.100Z,22.70
2024-01-14T05:56:37.277Z,23.20
2024-01-14T05:59:08.505Z,24.20
2024-01-14T06:01:38.763Z,23.50
2024-01-14T06:04:06.887Z,24.70
2024-01-14T06:06:36.538Z,22.90
2024-01-14T06:09:05.093Z,24.50
2024-01-14T06:11:34.137Z,24.90
2024-01-14T06:14:02.242Z,24.50
2024-01-14T06:16:30.409Z,24.70
2024-01-14T06:19:00.614Z,23.80
2024-01-14T06:21:29.112Z,25.00
2024-01-14T06:23:57.224Z,25.50
2024-01-14T06:26:25.724Z,23.80
2024-01-14T06:28:53.858Z,24.20
2024-01-14T06:31:22.118Z,24.00
2024-01-14T06:33:50.512Z,24.70
2024-01-14T06:36:22.237Z,20.40
2024-01-14T06:38:50.361Z,23.30
2024-01-14T06:41:26.729Z,23.90
2024-01-14T06:43:55.432Z,24.10
2024-01-14T06:46:27.074Z,22.40
2024-01-14T06:48:57.206Z,23.30
2024-01-14T06:51:28.885Z,22.50
2024-01-14T06:53:57.172Z,23.30
2024-01-14T06:56:25.562Z,23.00
2024-01-14T06:58:53.728Z,23.10
2024-01-14T07:01:23.122Z,22.20
2024-01-14T07:03:53.854Z,24.10
2024-01-14T07:06:22.876Z,23.90
2024-01-14T07:08:53.332Z,24.60
2024-01-14T07:11:22.489Z,23.30
2024-01-14T07:13:51.879Z,23.80
2024-01-14T07:16:19.996Z,23.40
2024-01-14T07:18:50.475Z,21.60
2024-01-14T07:21:26.275Z,22.10
2024-01-14T07:23:54.888Z,22.10
2024-01-14T07:26:25.075Z,20.00
2024-01-14T07:28:54.687Z,22.90
2024-01-14T07:31:32.317Z,22.60
2024-01-14T07:34:00.771Z,22.30
2024-01-14T07:36:32.067Z,22.70
2024-01-14T07:39:03.768Z,21.70
2024-01-14T07:41:32.465Z,23.80
2024-01-14T07:44:00.744Z,23.00
2024-01-14T07:46:31.875Z,24.20
2024-01-14T07:49:05.612Z,23.40
2024-01-14T07:51:34.824Z,22.40
2024-01-14T07:54:02.989Z,21.70
2024-01-14T07:56:31.388Z,20.80
2024-01-14T07:58:59.610Z,20.50
2024-01-14T08:01:27.769Z,22.40
2024-01-14T08:03:56.053Z,21.60
2024-01-14T08:06:25.653Z,18.30
2024-01-14T08:08:54.171Z,17.30
2024-01-14T08:11:22.878Z,17.80
2024-01-14T08:13:52.898Z,18.70
2024-01-14T08:16:21.123Z,17.60
2024-01-14T08:18:49.301Z,20.10
2024-01-14T08:21:17.586Z,21.40
2024-01-14T08:23:45.727Z,19.80
2024-01-14T08:26:15.559Z,20.90
2024-01-14T08:28:43.757Z,21.60
2024-01-14T08:31:14.828Z,21.90
2024-01-14T08:33:45.634Z,21.00
2024-01-14T08:36:14.732Z,19.90
2024-01-14T08:38:43.433Z,21.30
2024-01-14T08:41:11.688Z,22.80
2024-01-14T08:43:40.058Z,20.90
2024-01-14T08:46:09.060Z,24.10
2024-01-14T08:48:37.840Z,23.50
2024-01-14T08:51:11.658Z,22.70
2024-01-14T08:53:41.620Z,22.10
2024-01-14T08:56:09.975Z,34.80
2024-01-14T08:58:39.314Z,22.10
2024-01-14T09:01:08.748Z,22.20
2024-01-14T09:03:37.140Z,21.80
2024-01-14T09:06:05.833Z,21.40
2024-01-14T09:08:35.528Z,20.40
2024-01-14T09:11:04.960Z,21.70
2024-01-14T09:13:33.718Z,21.90
2024-01-14T09:16:07.858Z,21.50
2024-01-14T09:18:37.906Z,21.60
2024-01-14T09:21:06.814Z,21.80
2024-01-14T09:23:36.895Z,21.90
2024-01-14T09:26:06.500Z,21.10
2024-01-14T09:28:37.339Z,21.20
2024-01-14T09:31:06.825Z,22.30
2024-01-14T09:33:35.168Z,21.00
2024-01-14T09:36:08.323Z,21.80
2024-01-14T09:38:37.515Z,22.20
2024-01-14T09:41:32.463Z,22.70
2024-01-14T09:44:05.112Z,21.20
2024-01-14T09:46:34.669Z,21.40
2024-01-14T09:49:03.971Z,22.00
2024-01-14T09:51:33.850Z,21.40
2024-01-14T09:54:04.190Z,23.30
2024-01-14T09:56:34.905Z,22.80
2024-01-14T09:59:12.476Z,22.00
2024-01-14T10:01:42.269Z,23.20
2024-01-14T10:04:12.755Z,22.50
2024-01-14T10:06:45.780Z,23.80
2024-01-14T10:09:14.404Z,22.90
2024-01-14T10:11:42.749Z,21.60
2024-01-14T10:14:13.061Z,22.40
2024-01-14T10:16:52.236Z,23.10
2024-01-14T10:19:23.870Z,23.00
2024-01-14T10:22:14.019Z,25.90
2024-01-14T10:24:55.780Z,23.20
2024-01-14T10:27:35.283Z,25.10
2024-01-14T10:30:14.948Z,25.90
2024-01-14T10:35:33.736Z,22.60
2024-01-14T10:38:03.306Z,22.10
2024-01-14T10:40:32.047Z,23.70
2024-01-14T10:43:04.257Z,24.20
2024-01-14T10:45:33.732Z,23.20
2024-01-14T10:48:08.460Z,23.10
2024-01-14T10:50:44.933Z,27.60
2024-01-14T10:53:23.552Z,25.00
2024-01-14T10:56:03.328Z,22.80
2024-01-14T10:58:37.718Z,22.90
2024-01-14T11:01:09.497Z,22.80
2024-01-14T11:03:40.513Z,23.30
2024-01-14T11:06:10.040Z,23.40
2024-01-14T11:08:39.339Z,22.30
2024-01-14T11:11:07.582Z,25.30
2024-01-14T11:14:10.087Z,24.30
2024-01-14T11:17:04.860Z,24.40
2024-01-14T11:19:38.008Z,24.50
2024-01-14T11:22:31.627Z,24.90
2024-01-14T11:25:05.552Z,24.40
2024-01-14T11:27:36.268Z,25.00
2024-01-14T11:30:15.795Z,23.90
2024-01-14T11:32:44.893Z,23.10
2024-01-14T11:35:36.880Z,24.70
2024-01-14T11:38:28.639Z,25.20
2024-01-14T11:40:57.631Z,23.10
2024-01-14T11:43:29.510Z,24.40
2024-01-14T11:46:00.591Z,24.80
2024-01-14T11:48:29.714Z,22.80
2024-01-14T11:51:00.584Z,23.10
2024-01-14T11:53:35.425Z,24.10
2024-01-14T11:56:04.582Z,23.40
2024-01-14T11:58:34.492Z,22.50
2024-01-14T12:01:03.985Z,23.50
2024-01-14T12:03:36.206Z,23.50
2024-01-14T12:06:05.526Z,23.50
2024-01-14T12:08:35.013Z,24.00
2024-01-14T12:11:07.080Z,23.30
2024-01-14T12:13:36.171Z,23.50
2024-01-14T12:16:04.618Z,23.20
2024-01-14T12:18:45.622Z,24.00
2024-01-14T12:21:27.588Z,23.80
2024-01-14T12:26:32.064Z,22.90
2024-01-14T12:29:00.818Z,25.40
2024-01-14T12:31:49.080Z,23.30
2024-01-14T12:34:21.540Z,22.90
2024-01-14T12:36:54.443Z,22.40
2024-01-14T12:39:25.469Z,23.40
2024-01-14T12:41:56.245Z,22.50
2024-01-14T12:44:28.230Z,22.70
2024-01-14T12:47:10.863Z,23.40
2024-01-14T12:49:41.190Z,22.20
2024-01-14T12:52:10.523Z,22.60
2024-01-14T12:54:51.444Z,22.60
2024-01-14T12:57:24.099Z,22.60
2024-01-14T12:59:53.856Z,22.30
2024-01-14T13:02:25.416Z,23.20
2024-01-14T13:04:53.845Z,23.30
2024-01-14T13:07:28.562Z,23.20
2024-01-14T13:09:59.010Z,22.00
2024-01-14T13:12:30.678Z,22.00
2024-01-14T13:15:01.469Z,23.20
2024-01-14T13:17:31.368Z,23.00
2024-01-14T13:20:03.745Z,23.20
2024-01-14T13:22:35.492Z,25.70
2024-01-14T13:25:08.326Z,24.90
2024-01-14T13:27:37.464Z,25.30
2024-01-14T13:30:09.582Z,26.10
2024-01-14T13:32:38.931Z,25.80
2024-01-14T13:35:10.833Z,27.30
2024-01-14T13:37:41.995Z,25.00
2024-01-14T13:40:11.027Z,22.90
2024-01-14T13:42:43.072Z,23.50
2024-01-14T13:45:16.168Z,23.70
2024-01-14T13:50:14.443Z,24.00
2024-01-14T13:52:42.544Z,23.50
2024-01-14T13:55:12.825Z,22.30
2024-01-14T13:57:46.269Z,21.60
2024-01-14T14:00:18.569Z,22.30
2024-01-14T14:02:47.032Z,21.40
2024-01-14T14:05:17.435Z,21.00
2024-01-14T14:07:47.727Z,19.30
2024-01-14T14:10:18.345Z,18.50
2024-01-14T14:12:49.086Z,20.00
2024-01-14T14:15:17.859Z,20.30
2024-01-14T14:17:52.334Z,20.00
2024-01-14T14:20:23.230Z,21.30
2024-01-14T14:22:52.048Z,21.00
2024-01-14T14:25:25.295Z,21.80
2024-01-14T14:27:55.460Z,21.30
2024-01-14T14:30:27.756Z,20.00
2024-01-14T14:33:01.768Z,20.00
2024-01-14T14:35:35.299Z,21.90
2024-01-14T14:38:05.734Z,22.10
2024-01-14T14:40:33.886Z,21.30
2024-01-14T14:43:05.798Z,21.60
2024-01-14T14:45:34.501Z,21.70
2024-01-14T14:48:03.154Z,21.20
2024-01-14T14:50:32.601Z,21.10
2024-01-14T14:53:04.902Z,22.00
2024-01-14T14:55:35.619Z,20.80
2024-01-14T14:58:05.761Z,20.50
2024-01-14T15:00:37.115Z,21.80
2024-01-14T15:03:06.086Z,21.60
2024-01-14T15:05:37.533Z,21.00
2024-01-14T15:08:09.339Z,22.80
2024-01-14T15:10:49.454Z,22.60
2024-01-14T15:13:25.843Z,22.60
2024-01-14T15:15:56.587Z,22.30
2024-01-14T15:18:29.081Z,24.00
2024-01-14T15:20:58.757Z,25.00
2024-01-14T15:23:28.405Z,27.70
2024-01-14T15:25:59.404Z,27.60
2024-01-14T15:28:37.958Z,25.90
2024-01-14T15:31:10.353Z,26.30
2024-01-14T15:33:46.374Z,25.20
2024-01-14T15:36:19.202Z,25.10
2024-01-14T15:38:50.438Z,26.40
2024-01-14T15:41:19.124Z,24.90
2024-01-14T15:43:48.774Z,28.00
2024-01-14T15:46:17.699Z,27.10
2024-01-14T15:48:47.687Z,25.10
2024-01-14T15:51:23.349Z,24.40
2024-01-14T15:53:58.064Z,23.70
2024-01-14T15:56:30.489Z,23.80
2024-01-14T15:58:59.116Z,22.80
2024-01-14T16:01:31.269Z,22.70
2024-01-14T16:04:01.250Z,21.70
2024-01-14T16:06:30.279Z,21.70
2024-01-14T16:08:59.968Z,19.90
2024-01-14T16:11:34.300Z,21.40
2024-01-14T16:14:03.721Z,21.10
2024-01-14T16:16:35.842Z,22.20
2024-01-14T16:19:09.076Z,23.10
2024-01-14T16:21:43.145Z,21.60
2024-01-14T16:24:11.618Z,20.10
2024-01-14T16:26:40.889Z,20.40
2024-01-14T16:29:09.346Z,20.50
2024-01-14T16:31:38.129Z,21.70
2024-01-14T16:34:07.240Z,22.30
2024-01-14T16:36:39.572Z,20.70
2024-01-14T16:39:11.103Z,21.20
2024-01-14T16:41:40.569Z,21.80
2024-01-14T16:44:12.164Z,22.10
2024-01-14T16:46:42.214Z,22.20
2024-01-14T16:49:11.619Z,22.10
2024-01-14T16:51:40.459Z,21.90
2024-01-14T16:54:11.785Z,22.90
2024-01-14T16:56:46.398Z,24.10
2024-01-14T16:59:18.110Z,23.50
2024-01-14T17:01:59.531Z,23.10
2024-01-14T17:04:31.365Z,24.10
2024-01-14T17:07:00.146Z,25.00
2024-01-14T17:09:28.665Z,24.70
2024-01-14T17:11:59.369Z,24.70
2024-01-14T17:14:28.688Z,22.80
2024-01-14T17:17:01.745Z,24.00
2024-01-14T17:19:37.904Z,22.40
2024-01-14T17:22:11.691Z,24.40
2024-01-14T17:24:52.111Z,22.70
2024-01-14T17:27:35.518Z,25.10
2024-01-14T17:30:07.941Z,27.60
2024-01-14T17:32:37.694Z,25.40
2024-01-14T17:35:10.804Z,25.40
2024-01-14T17:37:46.829Z,23.90
2024-01-14T17:40:15.582Z,23.20
2024-01-14T17:42:51.367Z,23.10
2024-01-14T17:45:24.343Z,24.40
2024-01-14T17:48:03.625Z,23.90
2024-01-14T17:50:33.909Z,28.00
2024-01-14T17:53:11.807Z,23.40
2024-01-14T17:55:47.099Z,22.20
2024-01-14T17:58:16.344Z,23.30
2024-01-14T18:00:46.560Z,24.60
2024-01-14T18:03:15.694Z,24.00
2024-01-14T18:05:44.226Z,24.30
2024-01-14T18:08:13.000Z,22.90
2024-01-14T18:10:50.546Z,20.80
2024-01-14T18:13:29.536Z,24.10
2024-01-14T18:15:57.981Z,22.40
2024-01-14T18:18:36.948Z,22.90
2024-01-14T18:21:12.367Z,26.40
2024-01-14T18:23:49.086Z,25.90
2024-01-14T18:26:31.516Z,24.80
2024-01-14T18:29:11.309Z,25.00
2024-01-14T18:31:44.356Z,24.30
2024-01-14T18:34:23.161Z,24.30
2024-01-14T18:36:55.126Z,24.50
2024-01-14T18:39:29.480Z,24.60
2024-01-14T18:42:06.275Z,26.00
2024-01-14T18:44:35.890Z,24.10
2024-01-14T18:47:14.279Z,23.70
2024-01-14T18:55:17.103Z,24.20
2024-01-14T18:57:50.104Z,22.80
2024-01-14T19:00:23.977Z,22.40
2024-01-14T19:03:01.399Z,23.30
2024-01-14T19:05:48.669Z,24.10
2024-01-14T19:08:31.976Z,24.30
2024-01-14T19:11:06.538Z,23.50
2024-01-14T19:13:38.562Z,24.00
2024-01-14T19:16:15.348Z,23.30
2024-01-14T19:18:50.166Z,23.10
2024-01-14T19:21:26.073Z,22.50
2024-01-14T19:23:56.659Z,22.20
2024-01-14T19:26:28.166Z,21.00
2024-01-14T19:28:58.268Z,21.40
2024-01-14T19:31:37.194Z,21.50
2024-01-14T19:37:02.697Z,22.90
2024-01-14T19:39:33.407Z,22.60
2024-01-14T19:42:01.776Z,24.10
2024-01-14T19:44:37.937Z,22.90
2024-01-14T19:47:13.151Z,22.90
2024-01-14T19:50:01.564Z,21.40
2024-01-14T19:52:45.288Z,23.00
2024-01-14T19:55:18.207Z,23.50
2024-01-14T19:57:49.458Z,23.60
2024-01-14T20:00:19.623Z,24.30
2024-01-14T20:02:54.231Z,24.30
2024-01-14T20:05:34.573Z,23.00
2024-01-14T20:08:05.725Z,24.00
2024-01-14T20:10:39.780Z,23.90
2024-01-14T20:13:12.346Z,23.60
2024-01-14T20:15:47.749Z,23.50
2024-01-14T20:20:47.563Z,23.40
2024-01-14T20:23:19.003Z,25.30
2024-01-14T20:25:58.199Z,25.00
2024-01-14T20:28:34.587Z,25.40
2024-01-14T20:31:07.074Z,27.60
2024-01-14T20:33:41.794Z,25.50
2024-01-14T20:36:13.489Z,26.00
2024-01-14T20:38:45.011Z,25.50
2024-01-14T20:41:13.761Z,26.00
2024-01-14T20:43:48.920Z,25.50
2024-01-14T20:46:17.507Z,24.70
2024-01-14T20:48:49.142Z,24.60
2024-01-14T20:51:25.567Z,25.20
2024-01-14T20:54:00.982Z,24.10
2024-01-14T20:56:31.732Z,25.60
2024-01-14T20:59:12.386Z,25.30
2024-01-14T21:01:40.910Z,25.90
2024-01-14T21:04:09.279Z,25.70
2024-01-14T21:06:37.714Z,26.50
2024-01-14T21:09:11.591Z,26.10
2024-01-14T21:11:39.707Z,26.00
2024-01-14T21:14:08.319Z,25.80
2024-01-14T21:16:36.480Z,26.50
2024-01-14T21:19:05.290Z,26.40
2024-01-14T21:21:33.683Z,25.70
2024-01-14T21:24:04.916Z,26.60
2024-01-14T21:26:33.088Z,26.00
2024-01-14T21:29:04.887Z,25.50
2024-01-14T21:31:33.186Z,26.70
2024-01-14T21:34:02.853Z,27.90
2024-01-14T21:36:31.309Z,27.80
2024-01-14T21:39:01.494Z,29.50
2024-01-14T21:41:30.360Z,35.60
2024-01-14T21:43:59.674Z,36.50
2024-01-14T21:46:32.283Z,35.70
2024-01-14T21:49:00.485Z,35.60
2024-01-14T21:51:29.576Z,35.10
2024-01-14T21:53:59.274Z,34.10
2024-01-14T21:56:27.600Z,34.40
2024-01-14T21:58:55.754Z,37.30
2024-01-14T22:01:24.134Z,35.60
2024-01-14T22:03:52.366Z,35.20
2024-01-14T22:06:20.575Z,34.20
2024-01-14T22:08:48.767Z,34.30
2024-01-14T22:11:17.142Z,33.40
2024-01-14T22:13:48.226Z,33.10
2024-01-14T22:16:16.415Z,34.50
2024-01-14T22:18:45.029Z,32.90
2024-01-14T22:21:13.361Z,34.00
2024-01-14T22:23:42.620Z,31.90
2024-01-14T22:26:12.024Z,34.80
2024-01-14T22:28:40.896Z,33.40
2024-01-14T22:31:09.490Z,33.70
2024-01-14T22:33:37.822Z,32.20
2024-01-14T22:36:07.458Z,32.90
2024-01-14T22:38:40.710Z,31.90
2024-01-14T22:41:15.029Z,33.40
2024-01-14T22:43:46.275Z,33.10
2024-01-14T22:46:20.439Z,32.00
2024-01-14T22:48:48.750Z,33.30
2024-01-14T22:51:19.108Z,33.70
2024-01-14T22:53:48.978Z,36.00
2024-01-14T22:56:18.560Z,34.00
2024-01-14T22:58:47.393Z,33.80
2024-01-14T23:01:15.539Z,34.30
2024-01-14T23:03:44.389Z,33.90
2024-01-14T23:06:13.744Z,35.10
2024-01-14T23:08:42.201Z,34.40
2024-01-14T23:11:11.430Z,36.10
2024-01-14T23:13:40.090Z,34.20
2024-01-14T23:16:09.911Z,34.20
2024-01-14T23:18:38.211Z,34.10
2024-01-14T23:21:09.441Z,34.70
2024-01-14T23:23:37.848Z,32.70
2024-01-14T23:26:07.236Z,33.00
2024-01-14T23:28:35.377Z,33.40
2024-01-14T23:31:03.770Z,31.70
2024-01-14T23:33:32.236Z,32.50
2024-01-14T23:36:00.492Z,33.70
2024-01-14T23:38:29.060Z,32.90
2024-01-14T23:40:57.299Z,32.60
2024-01-14T23:43:25.794Z,33.80
2024-01-14T23:45:53.963Z,34.40
2024-01-14T23:48:22.238Z,34.80
2024-01-14T23:50:50.679Z,37.80
2024-01-14T23:53:20.008Z,39.50
2024-01-14T23:55:48.164Z,43.40
2024-01-14T23:58:17.859Z,42.70
